createdAt,value
2019-01-28T00:01:37.470Z,8.03
2019-01-28T00:04:06.861Z,8.93
2019-01-28T00:06:36.190Z,12.87
2019-01-28T00:09:07.182Z,9.17
2019-01-28T00:11:36.505Z,8.10
2019-01-28T00:14:06.263Z,10.83
2019-01-28T00:16:35.733Z,10.53
2019-01-28T00:19:05.064Z,8.60
2019-01-28T00:21:34.466Z,8.53
2019-01-28T00:24:03.982Z,9.57
2019-01-28T00:26:33.314Z,8.37
2019-01-28T00:29:02.639Z,11.03
2019-01-28T00:31:31.990Z,7.70
2019-01-28T00:34:01.326Z,10.30
2019-01-28T00:36:30.654Z,9.20
2019-01-28T00:39:00.016Z,9.90
2019-01-28T00:41:29.332Z,7.33
2019-01-28T00:43:58.659Z,7.10
2019-01-28T00:46:28.022Z,10.57
2019-01-28T00:48:57.362Z,10.77
2019-01-28T00:51:26.698Z,11.67
2019-01-28T00:53:56.049Z,9.30
2019-01-28T00:56:25.377Z,9.90
2019-01-28T00:58:54.697Z,8.63
2019-01-28T01:01:24.121Z,10.37
2019-01-28T01:03:53.124Z,9.47
2019-01-28T01:06:22.366Z,10.23
2019-01-28T01:08:51.725Z,10.93
2019-01-28T01:11:21.053Z,10.87
2019-01-28T01:13:50.386Z,8.73
2019-01-28T01:16:20.122Z,7.87
2019-01-28T01:18:49.438Z,9.73
2019-01-28T01:21:18.774Z,9.93
2019-01-28T01:23:48.130Z,10.00
2019-01-28T01:26:17.457Z,9.13
2019-01-28T01:28:46.463Z,8.77
2019-01-28T01:31:15.730Z,11.03
2019-01-28T01:33:45.065Z,10.30
2019-01-28T01:36:14.386Z,9.37
2019-01-28T01:38:43.754Z,11.17
2019-01-28T01:41:13.085Z,10.50
2019-01-28T01:43:42.420Z,11.40
2019-01-28T01:46:11.773Z,11.47
2019-01-28T01:48:41.105Z,12.20
2019-01-28T01:51:10.443Z,12.13
2019-01-28T01:53:39.803Z,12.33
2019-01-28T01:56:09.131Z,13.23
2019-01-28T01:58:38.462Z,14.27
2019-01-28T02:01:07.825Z,12.93
2019-01-28T02:03:37.155Z,12.83
2019-01-28T02:06:06.553Z,11.93
2019-01-28T02:08:35.909Z,11.50
2019-01-28T02:11:05.577Z,12.57
2019-01-28T02:13:34.909Z,11.33
2019-01-28T02:16:04.337Z,12.93
2019-01-28T02:18:33.344Z,14.57
2019-01-28T02:21:02.586Z,13.40
2019-01-28T02:23:31.989Z,13.47
2019-01-28T02:26:00.897Z,13.90
2019-01-28T02:28:29.821Z,13.30
2019-01-28T02:30:58.762Z,11.97
2019-01-28T02:33:28.005Z,12.03
2019-01-28T02:35:57.335Z,12.23
2019-01-28T02:38:26.694Z,11.00
2019-01-28T02:40:56.026Z,13.57
2019-01-28T02:43:25.025Z,10.80
2019-01-28T02:45:53.971Z,12.87
2019-01-28T02:48:23.212Z,12.77
2019-01-28T02:50:52.206Z,11.83
2019-01-28T02:53:21.481Z,13.00
2019-01-28T02:55:50.808Z,12.80
2019-01-28T02:58:20.137Z,12.37
2019-01-28T03:00:49.502Z,12.13
2019-01-28T03:03:18.829Z,11.70
2019-01-28T03:05:48.157Z,13.10
2019-01-28T03:08:17.520Z,12.43
2019-01-28T03:10:46.852Z,14.70
2019-01-28T03:13:16.174Z,14.20
2019-01-28T03:15:45.538Z,11.47
2019-01-28T03:18:14.936Z,13.40
2019-01-28T03:20:44.274Z,11.33
2019-01-28T03:23:13.804Z,12.63
2019-01-28T03:25:43.135Z,12.10
2019-01-28T03:28:12.490Z,11.70
2019-01-28T03:30:41.830Z,12.40
2019-01-28T03:33:11.322Z,12.60
2019-01-28T03:35:40.766Z,12.83
2019-01-28T03:38:10.131Z,11.27
2019-01-28T03:40:39.470Z,12.23
2019-01-28T03:43:08.806Z,11.70
2019-01-28T03:45:38.160Z,11.10
2019-01-28T03:48:07.485Z,12.20
2019-01-28T03:50:36.819Z,11.33
2019-01-28T03:53:06.386Z,11.03
2019-01-28T03:55:35.723Z,11.10
2019-01-28T03:58:05.118Z,10.63
2019-01-28T04:00:34.470Z,11.13
2019-01-28T04:03:03.809Z,11.13
2019-01-28T04:05:33.137Z,10.37
2019-01-28T04:08:02.505Z,10.20
2019-01-28T04:10:31.817Z,9.37
2019-01-28T04:13:01.145Z,10.67
2019-01-28T04:15:32.544Z,10.60
2019-01-28T04:18:01.698Z,10.03
2019-01-28T04:20:31.042Z,12.30
2019-01-28T04:23:00.394Z,10.47
2019-01-28T04:25:29.727Z,10.00
2019-01-28T04:27:59.053Z,10.33
2019-01-28T04:30:28.572Z,10.73
2019-01-28T04:32:57.916Z,10.17
2019-01-28T04:35:27.242Z,10.27
2019-01-28T04:37:56.602Z,11.17
2019-01-28T04:40:25.950Z,10.60
2019-01-28T04:42:55.282Z,11.03
2019-01-28T04:45:24.651Z,10.10
2019-01-28T04:47:53.990Z,11.20
2019-01-28T04:50:23.377Z,12.20
2019-01-28T04:52:52.759Z,11.93
2019-01-28T04:55:22.167Z,11.50
2019-01-28T04:57:51.492Z,12.00
2019-01-28T05:00:25.600Z,12.00
2019-01-28T05:02:54.966Z,11.50
2019-01-28T05:05:24.293Z,11.20
2019-01-28T05:07:53.658Z,12.13
2019-01-28T05:10:23.053Z,12.40
2019-01-28T05:12:52.385Z,12.57
2019-01-28T05:15:21.888Z,12.70
2019-01-28T05:17:51.222Z,12.70
2019-01-28T05:20:22.711Z,13.37
2019-01-28T05:22:52.291Z,13.13
2019-01-28T05:25:21.668Z,14.53
2019-01-28T05:27:50.995Z,13.20
2019-01-28T05:30:24.877Z,13.17
2019-01-28T05:32:54.201Z,14.40
2019-01-28T05:35:23.774Z,14.23
2019-01-28T05:37:53.133Z,15.40
2019-01-28T05:40:24.121Z,16.80
2019-01-28T05:42:53.509Z,18.67
2019-01-28T05:45:24.106Z,15.10
2019-01-28T05:47:53.447Z,16.07
2019-01-28T05:50:22.777Z,14.60
2019-01-28T05:52:52.860Z,15.10
2019-01-28T05:55:22.377Z,15.80
2019-01-28T05:57:51.718Z,15.37
2019-01-28T06:00:42.620Z,14.57
2019-01-28T06:03:11.986Z,14.67
2019-01-28T06:05:41.321Z,15.47
2019-01-28T06:08:10.686Z,14.87
2019-01-28T06:10:40.006Z,15.60
2019-01-28T06:13:09.333Z,15.23
2019-01-28T06:15:38.693Z,15.13
2019-01-28T06:18:08.093Z,15.50
2019-01-28T06:20:37.430Z,14.63
2019-01-28T06:23:06.789Z,16.17
2019-01-28T06:25:36.115Z,14.57
2019-01-28T06:28:05.446Z,15.30
2019-01-28T06:30:34.801Z,14.40
2019-01-28T06:33:04.273Z,15.77
2019-01-28T06:35:33.607Z,14.73
2019-01-28T06:38:02.970Z,15.70
2019-01-28T06:40:34.542Z,18.63
2019-01-28T06:43:03.938Z,14.57
2019-01-28T06:45:33.300Z,14.23
2019-01-28T06:48:02.628Z,13.80
2019-01-28T06:50:31.957Z,14.10
2019-01-28T06:53:01.322Z,14.67
2019-01-28T06:55:30.654Z,12.83
2019-01-28T06:57:59.982Z,13.63
2019-01-28T07:00:31.478Z,14.20
2019-01-28T07:03:00.882Z,13.20
2019-01-28T07:05:30.200Z,13.57
2019-01-28T07:07:59.556Z,13.93
2019-01-28T07:10:28.882Z,13.67
2019-01-28T07:12:58.210Z,12.73
2019-01-28T07:15:27.701Z,14.77
2019-01-28T07:17:57.035Z,14.17
2019-01-28T07:20:30.506Z,12.63
2019-01-28T07:23:00.399Z,13.33
2019-01-28T07:25:29.838Z,12.90
2019-01-28T07:27:59.284Z,13.70
2019-01-28T07:30:35.786Z,14.53
2019-01-28T07:33:05.264Z,12.57
2019-01-28T07:35:34.670Z,13.27
2019-01-28T07:38:04.602Z,12.73
2019-01-28T07:40:33.972Z,12.07
2019-01-28T07:43:03.363Z,13.40
2019-01-28T07:45:34.786Z,13.00
2019-01-28T07:48:04.483Z,12.43
2019-01-28T07:50:33.907Z,12.67
2019-01-28T07:53:03.601Z,13.23
2019-01-28T07:55:33.067Z,12.37
2019-01-28T07:58:04.779Z,12.10
2019-01-28T08:00:37.374Z,13.80
2019-01-28T08:03:07.199Z,13.13
2019-01-28T08:05:36.568Z,13.97
2019-01-28T08:08:06.218Z,12.93
2019-01-28T08:10:35.598Z,13.63
2019-01-28T08:13:05.353Z,12.73
2019-01-28T08:15:35.084Z,14.60
2019-01-28T08:18:10.460Z,13.13
2019-01-28T08:20:37.563Z,13.70
2019-01-28T08:23:07.157Z,13.53
2019-01-28T08:25:36.583Z,12.37
2019-01-28T08:28:06.190Z,11.93
2019-01-28T08:30:36.795Z,13.53
2019-01-28T08:33:06.122Z,13.63
2019-01-28T08:35:35.882Z,13.93
2019-01-28T08:38:07.282Z,12.93
2019-01-28T08:40:36.804Z,12.40
2019-01-28T08:43:06.133Z,12.43
2019-01-28T08:45:36.069Z,12.50
2019-01-28T08:48:05.469Z,11.87
2019-01-28T08:50:34.812Z,11.57
2019-01-28T08:53:04.506Z,12.20
2019-01-28T08:55:34.002Z,11.37
2019-01-28T08:58:03.510Z,12.27
2019-01-28T09:00:37.982Z,11.67
2019-01-28T09:03:07.416Z,11.87
2019-01-28T09:05:36.891Z,12.10
2019-01-28T09:08:06.639Z,10.90
2019-01-28T09:10:36.257Z,11.03
2019-01-28T09:13:05.929Z,11.27
2019-01-28T09:15:35.458Z,12.60
2019-01-28T09:18:05.736Z,11.07
2019-01-28T09:20:35.074Z,12.43
2019-01-28T09:23:04.440Z,10.67
2019-01-28T09:25:33.777Z,12.27
2019-01-28T09:28:03.386Z,13.47
2019-01-28T09:30:34.391Z,11.23
2019-01-28T09:33:04.261Z,11.30
2019-01-28T09:35:34.970Z,11.40
2019-01-28T09:38:05.261Z,11.80
2019-01-28T09:40:38.029Z,12.10
2019-01-28T09:43:07.642Z,11.50
2019-01-28T09:45:41.888Z,10.83
2019-01-28T09:48:13.357Z,11.17
2019-01-28T09:50:42.764Z,10.97
2019-01-28T09:53:12.662Z,11.53
2019-01-28T09:55:41.993Z,11.23
2019-01-28T09:58:11.321Z,11.33
2019-01-28T10:00:43.746Z,9.93
2019-01-28T10:03:13.164Z,10.00
2019-01-28T10:05:42.650Z,9.93
2019-01-28T10:08:12.247Z,11.60
2019-01-28T10:10:41.579Z,9.93
2019-01-28T10:13:10.906Z,10.20
2019-01-28T10:15:40.329Z,9.63
2019-01-28T10:18:09.727Z,10.27
2019-01-28T10:20:44.944Z,10.10
2019-01-28T10:23:14.910Z,10.07
2019-01-28T10:25:44.374Z,9.77
2019-01-28T10:28:13.745Z,10.90
2019-01-28T10:30:44.535Z,9.93
2019-01-28T10:33:13.926Z,9.70
2019-01-28T10:35:44.504Z,10.60
2019-01-28T10:38:14.421Z,9.80
2019-01-28T10:40:44.382Z,10.00
2019-01-28T10:43:13.708Z,9.53
2019-01-28T10:45:43.057Z,9.10
2019-01-28T10:48:12.725Z,10.20
2019-01-28T10:50:42.121Z,9.67
2019-01-28T10:53:16.426Z,10.37
2019-01-28T10:55:45.963Z,9.73
2019-01-28T10:58:15.297Z,10.60
2019-01-28T11:00:46.909Z,10.37
2019-01-28T11:03:17.477Z,9.77
2019-01-28T11:05:46.812Z,10.87
2019-01-28T11:08:16.167Z,9.57
2019-01-28T11:10:45.674Z,9.60
2019-01-28T11:13:20.086Z,10.47
2019-01-28T11:15:49.545Z,10.33
2019-01-28T11:18:21.738Z,9.40
2019-01-28T11:20:51.211Z,10.07
2019-01-28T11:23:20.855Z,10.43
2019-01-28T11:25:50.391Z,11.00
2019-01-28T11:28:19.939Z,9.60
2019-01-28T11:30:53.787Z,9.37
2019-01-28T11:33:23.258Z,9.70
2019-01-28T11:35:52.978Z,9.80
2019-01-28T11:38:22.645Z,10.27
2019-01-28T11:40:52.246Z,10.23
2019-01-28T11:43:21.573Z,10.60
2019-01-28T11:45:59.350Z,9.33
2019-01-28T11:48:28.784Z,9.30
2019-01-28T11:50:58.273Z,9.80
2019-01-28T11:53:27.706Z,9.63
2019-01-28T11:55:56.998Z,10.80
2019-01-28T11:58:26.365Z,9.27
2019-01-28T12:01:02.876Z,10.60
2019-01-28T12:03:32.201Z,9.47
2019-01-28T12:06:01.643Z,9.00
2019-01-28T12:08:31.073Z,9.37
2019-01-28T12:11:00.561Z,9.10
2019-01-28T12:13:29.885Z,9.63
2019-01-28T12:15:59.238Z,9.07
2019-01-28T12:18:28.644Z,8.17
2019-01-28T12:20:57.980Z,8.97
2019-01-28T12:23:34.541Z,8.00
2019-01-28T12:26:03.328Z,8.80
2019-01-28T12:28:32.651Z,8.30
2019-01-28T12:31:02.014Z,7.37
2019-01-28T12:33:31.413Z,8.17
2019-01-28T12:36:20.107Z,8.43
2019-01-28T12:38:50.224Z,7.27
2019-01-28T12:41:19.662Z,7.30
2019-01-28T12:43:49.014Z,8.23
2019-01-28T12:46:18.341Z,8.10
2019-01-28T12:48:47.674Z,8.30
2019-01-28T12:51:17.025Z,8.33
2019-01-28T12:53:46.367Z,8.90
2019-01-28T12:56:15.692Z,8.17
2019-01-28T12:58:45.123Z,8.53
2019-01-28T13:01:14.453Z,8.87
2019-01-28T13:03:43.781Z,7.87
2019-01-28T13:06:13.140Z,9.87
2019-01-28T13:08:42.461Z,8.77
2019-01-28T13:11:11.860Z,8.13
2019-01-28T13:13:41.376Z,9.33
2019-01-28T13:16:10.722Z,10.30
2019-01-28T13:18:40.051Z,10.63
2019-01-28T13:21:09.413Z,9.57
2019-01-28T13:23:38.755Z,10.00
2019-01-28T13:26:08.157Z,9.17
2019-01-28T13:28:37.513Z,8.17
2019-01-28T13:31:06.837Z,7.60
2019-01-28T13:33:36.313Z,7.60
2019-01-28T13:36:09.302Z,7.70
2019-01-28T13:38:36.758Z,8.10
2019-01-28T13:41:06.122Z,7.83
2019-01-28T13:43:35.549Z,7.37
2019-01-28T13:46:05.058Z,8.33
2019-01-28T13:48:34.433Z,7.87
2019-01-28T13:51:03.905Z,8.07
2019-01-28T13:53:33.253Z,8.23
2019-01-28T13:56:02.670Z,7.90
2019-01-28T13:58:32.026Z,7.23
2019-01-28T14:01:01.657Z,7.90
2019-01-28T14:03:35.941Z,7.73
2019-01-28T14:06:05.428Z,7.80
2019-01-28T14:08:34.758Z,8.13
2019-01-28T14:11:05.133Z,7.37
2019-01-28T14:13:34.590Z,8.70
2019-01-28T14:16:03.981Z,8.40
2019-01-28T14:18:33.305Z,7.67
2019-01-28T14:21:02.830Z,8.33
2019-01-28T14:23:32.163Z,8.23
2019-01-28T14:26:01.490Z,7.63
2019-01-28T14:28:30.847Z,8.90
2019-01-28T14:31:00.170Z,8.47
2019-01-28T14:33:29.599Z,9.00
2019-01-28T14:35:58.962Z,8.43
2019-01-28T14:38:28.315Z,8.73
2019-01-28T14:40:57.638Z,9.37
2019-01-28T14:43:27.007Z,8.47
2019-01-28T14:45:56.334Z,8.10
2019-01-28T14:48:25.670Z,8.90
2019-01-28T14:50:55.026Z,9.07
2019-01-28T14:53:24.352Z,9.33
2019-01-28T14:55:53.745Z,8.97
2019-01-28T14:58:23.173Z,9.10
2019-01-28T15:00:52.567Z,7.90
2019-01-28T15:03:21.898Z,9.37
2019-01-28T15:05:51.249Z,8.77
2019-01-28T15:08:20.578Z,8.93
2019-01-28T15:10:49.902Z,9.67
2019-01-28T15:13:19.262Z,9.13
2019-01-28T15:15:48.595Z,10.13
2019-01-28T15:18:18.053Z,9.33
2019-01-28T15:20:47.421Z,10.27
2019-01-28T15:23:16.816Z,10.57
2019-01-28T15:25:46.221Z,10.00
2019-01-28T15:28:15.580Z,9.33
2019-01-28T15:30:44.921Z,10.87
2019-01-28T15:33:14.338Z,10.57
2019-01-28T15:35:44.192Z,11.60
2019-01-28T15:38:13.573Z,11.97
2019-01-28T15:40:43.211Z,11.37
2019-01-28T15:43:12.613Z,11.17
2019-01-28T15:45:43.092Z,11.87
2019-01-28T15:48:12.425Z,11.53
2019-01-28T15:50:41.865Z,11.63
2019-01-28T15:53:11.206Z,12.60
2019-01-28T15:55:41.279Z,13.00
2019-01-28T15:58:11.233Z,13.03
2019-01-28T16:00:42.810Z,13.77
2019-01-28T16:03:12.541Z,13.73
2019-01-28T16:05:42.343Z,13.40
2019-01-28T16:08:11.669Z,14.73
2019-01-28T16:10:40.999Z,13.97
2019-01-28T16:13:10.358Z,14.57
2019-01-28T16:15:44.729Z,14.27
2019-01-28T16:18:14.225Z,13.37
2019-01-28T16:20:43.662Z,14.47
2019-01-28T16:23:12.989Z,13.57
2019-01-28T16:25:42.325Z,15.07
2019-01-28T16:28:11.753Z,14.83
2019-01-28T16:30:41.585Z,14.83
2019-01-28T16:33:10.909Z,13.83
2019-01-28T16:35:40.345Z,15.23
2019-01-28T16:38:09.677Z,14.97
2019-01-28T16:40:39.087Z,13.80
2019-01-28T16:43:08.777Z,14.90
2019-01-28T16:45:38.110Z,15.07
2019-01-28T16:48:07.682Z,15.17
2019-01-28T16:50:37.340Z,14.03
2019-01-28T16:53:06.887Z,13.90
2019-01-28T16:55:36.213Z,12.90
2019-01-28T16:58:06.345Z,15.10
2019-01-28T17:00:37.710Z,13.20
2019-01-28T17:03:08.278Z,14.17
2019-01-28T17:05:37.846Z,14.83
2019-01-28T17:08:07.227Z,17.43
2019-01-28T17:10:36.557Z,19.03
2019-01-28T17:13:06.359Z,18.33
2019-01-28T17:15:35.758Z,19.67
2019-01-28T17:18:05.739Z,19.47
2019-01-28T17:20:35.965Z,18.90
2019-01-28T17:23:05.674Z,18.10
2019-01-28T17:25:40.658Z,17.30
2019-01-28T17:28:09.980Z,18.20
2019-01-28T17:30:41.453Z,16.43
2019-01-28T17:33:10.990Z,17.80
2019-01-28T17:35:40.562Z,18.00
2019-01-28T17:38:10.223Z,18.37
2019-01-28T17:40:40.366Z,18.87
2019-01-28T17:43:10.633Z,19.60
2019-01-28T17:45:39.959Z,19.50
2019-01-28T17:48:09.709Z,18.90
2019-01-28T17:50:43.638Z,21.40
2019-01-28T17:53:10.270Z,19.70
2019-01-28T17:55:39.702Z,19.93
2019-01-28T17:58:09.169Z,20.83
2019-01-28T18:00:40.208Z,22.37
2019-01-28T18:03:14.534Z,21.33
2019-01-28T18:05:43.870Z,22.33
2019-01-28T18:08:13.215Z,22.60
2019-01-28T18:10:42.555Z,24.17
2019-01-28T18:13:11.881Z,20.90
2019-01-28T18:15:41.214Z,22.27
2019-01-28T18:18:10.583Z,21.03
2019-01-28T18:20:39.924Z,17.20
2019-01-28T18:23:10.570Z,12.20
2019-01-28T18:25:39.834Z,10.57
2019-01-28T18:28:08.842Z,10.37
2019-01-28T18:30:51.372Z,10.90
2019-01-28T18:33:20.683Z,10.53
2019-01-28T18:35:50.013Z,10.20
2019-01-28T18:38:19.037Z,10.23
2019-01-28T18:40:47.942Z,9.97
2019-01-28T18:43:17.190Z,10.00
2019-01-28T18:45:46.601Z,8.47
2019-01-28T18:48:15.601Z,9.10
2019-01-28T18:50:44.511Z,9.70
2019-01-28T18:53:13.821Z,9.70
2019-01-28T18:55:43.175Z,9.37
2019-01-28T18:58:12.509Z,8.90
2019-01-28T19:00:41.874Z,8.83
2019-01-28T19:03:11.202Z,7.70
2019-01-28T19:05:54.457Z,8.47
2019-01-28T19:08:25.417Z,7.93
2019-01-28T19:11:05.362Z,8.07
2019-01-28T19:13:36.321Z,8.10
2019-01-28T19:16:19.489Z,7.40
2019-01-28T19:18:56.117Z,7.47
2019-01-28T19:21:30.272Z,7.03
2019-01-28T19:23:59.675Z,7.33
2019-01-28T19:26:28.996Z,7.80
2019-01-28T19:28:58.346Z,7.27
2019-01-28T19:31:27.679Z,8.00
2019-01-28T19:34:01.918Z,7.70
2019-01-28T19:36:31.358Z,6.93
2019-01-28T19:39:00.673Z,6.77
2019-01-28T19:41:30.002Z,7.13
2019-01-28T19:43:59.362Z,6.50
2019-01-28T19:46:28.687Z,6.63
2019-01-28T19:48:58.013Z,6.77
2019-01-28T19:51:27.373Z,6.40
2019-01-28T19:53:56.700Z,6.80
2019-01-28T19:56:26.021Z,6.27
2019-01-28T19:58:55.376Z,6.27
2019-01-28T20:01:24.766Z,6.13
2019-01-28T20:03:54.091Z,6.30
2019-01-28T20:06:23.461Z,6.23
2019-01-28T20:08:52.777Z,6.70
2019-01-28T20:11:22.167Z,6.93
2019-01-28T20:13:51.526Z,7.10
2019-01-28T20:16:20.863Z,6.60
2019-01-28T20:18:50.188Z,7.33
2019-01-28T20:21:23.785Z,6.80
2019-01-28T20:23:50.598Z,6.60
2019-01-28T20:26:19.944Z,7.40
2019-01-28T20:28:49.358Z,6.73
2019-01-28T20:31:20.100Z,6.47
2019-01-28T20:33:49.642Z,6.43
2019-01-28T20:36:18.995Z,6.90
2019-01-28T20:38:48.322Z,6.90
2019-01-28T20:41:17.654Z,7.27
2019-01-28T20:43:47.002Z,6.93
2019-01-28T20:46:16.353Z,6.70
2019-01-28T20:48:45.740Z,7.13
2019-01-28T20:51:15.103Z,7.00
2019-01-28T20:53:44.422Z,7.20
2019-01-28T20:56:13.748Z,6.87
2019-01-28T20:58:43.095Z,7.00
2019-01-28T21:01:13.224Z,6.87
2019-01-28T21:03:42.576Z,7.00
2019-01-28T21:06:12.081Z,8.17
2019-01-28T21:08:41.531Z,8.17
2019-01-28T21:11:10.996Z,7.93
2019-01-28T21:13:40.448Z,7.77
2019-01-28T21:16:09.907Z,7.63
2019-01-28T21:18:42.007Z,8.30
2019-01-28T21:21:11.380Z,8.53
2019-01-28T21:23:40.719Z,7.47
2019-01-28T21:26:10.147Z,7.80
2019-01-28T21:28:39.614Z,8.20
2019-01-28T21:31:08.992Z,7.63
2019-01-28T21:33:38.378Z,7.97
2019-01-28T21:36:15.138Z,8.23
2019-01-28T21:38:45.866Z,8.33
2019-01-28T21:41:16.770Z,8.47
2019-01-28T21:43:46.251Z,7.97
2019-01-28T21:46:15.813Z,8.20
2019-01-28T21:48:45.357Z,7.97
2019-01-28T21:51:14.709Z,8.30
2019-01-28T21:53:44.039Z,8.03
2019-01-28T21:56:13.366Z,8.20
2019-01-28T21:58:42.723Z,9.27
2019-01-28T22:01:12.053Z,8.60
2019-01-28T22:03:41.391Z,9.17
2019-01-28T22:06:10.759Z,8.57
2019-01-28T22:08:40.091Z,8.93
2019-01-28T22:11:09.431Z,8.27
2019-01-28T22:13:38.785Z,7.83
2019-01-28T22:16:08.141Z,8.57
2019-01-28T22:18:37.447Z,8.40
2019-01-28T22:21:11.287Z,7.20
2019-01-28T22:23:40.878Z,8.03
2019-01-28T22:26:10.218Z,7.80
2019-01-28T22:28:39.570Z,7.40
2019-01-28T22:31:08.889Z,6.60
2019-01-28T22:33:38.213Z,6.83
2019-01-28T22:36:07.564Z,7.40
2019-01-28T22:38:36.894Z,7.30
2019-01-28T22:41:06.227Z,6.90
2019-01-28T22:43:35.581Z,7.83
2019-01-28T22:46:04.991Z,7.10
2019-01-28T22:48:34.318Z,7.23
2019-01-28T22:51:04.550Z,7.17
2019-01-28T22:53:33.899Z,6.60
2019-01-28T22:56:03.202Z,6.80
2019-01-28T22:58:32.550Z,7.03
2019-01-28T23:01:04.949Z,6.80
2019-01-28T23:03:34.283Z,6.57
2019-01-28T23:06:03.694Z,6.90
2019-01-28T23:08:33.026Z,6.80
2019-01-28T23:11:02.354Z,6.53
2019-01-28T23:13:31.698Z,6.23
2019-01-28T23:16:01.026Z,6.90
2019-01-28T23:18:30.359Z,6.00
2019-01-28T23:20:59.709Z,6.00
2019-01-28T23:23:29.042Z,6.43
2019-01-28T23:25:58.358Z,6.40
2019-01-28T23:28:27.733Z,6.53
2019-01-28T23:30:57.058Z,6.40
2019-01-28T23:33:26.387Z,6.50
2019-01-28T23:35:55.741Z,6.87
2019-01-28T23:38:25.061Z,6.53
2019-01-28T23:40:54.381Z,6.50
2019-01-28T23:43:23.730Z,6.43
2019-01-28T23:45:53.056Z,6.80
2019-01-28T23:48:22.385Z,6.47
2019-01-28T23:50:51.738Z,5.97
2019-01-28T23:53:21.067Z,6.73
2019-01-28T23:55:50.385Z,6.77
2019-01-28T23:58:19.746Z,7.07
